createdAt,value
2019-02-12T00:01:06.686Z,100.00
2019-02-12T00:03:36.106Z,100.00
2019-02-12T00:06:05.450Z,100.00
2019-02-12T00:08:34.535Z,100.00
2019-02-12T00:11:03.734Z,100.00
2019-02-12T00:13:33.067Z,100.00
2019-02-12T00:16:02.333Z,99.79
2019-02-12T00:18:31.440Z,98.96
2019-02-12T00:21:08.768Z,98.75
2019-02-12T00:23:31.368Z,99.33
2019-02-12T00:26:00.531Z,99.33
2019-02-12T00:28:29.584Z,99.61
2019-02-12T00:30:58.688Z,99.13
2019-02-12T00:33:27.774Z,99.13
2019-02-12T00:35:56.874Z,99.56
2019-02-12T00:38:26.259Z,99.56
2019-02-12T00:40:55.360Z,99.24
2019-02-12T00:43:24.634Z,99.00
2019-02-12T00:45:53.809Z,99.00
2019-02-12T00:48:23.149Z,99.32
2019-02-12T00:50:52.459Z,99.32
2019-02-12T00:53:21.599Z,99.14
2019-02-12T00:55:50.825Z,99.14
2019-02-12T00:58:20.352Z,99.54
2019-02-12T01:00:49.530Z,99.54
2019-02-12T01:03:18.708Z,99.44
2019-02-12T01:05:47.831Z,99.44
2019-02-12T01:08:16.880Z,99.61
2019-02-12T01:10:46.085Z,99.66
2019-02-12T01:13:15.145Z,99.05
2019-02-12T01:15:44.485Z,99.09
2019-02-12T01:18:13.572Z,99.09
2019-02-12T01:20:42.947Z,99.45
2019-02-12T01:23:12.140Z,99.71
2019-02-12T01:25:41.293Z,99.66
2019-02-12T01:28:10.671Z,99.99
2019-02-12T01:30:39.757Z,99.99
2019-02-12T01:33:09.092Z,99.95
2019-02-12T01:35:38.235Z,100.00
2019-02-12T01:38:07.525Z,99.42
2019-02-12T01:40:38.085Z,99.42
2019-02-12T01:43:07.204Z,99.25
2019-02-12T01:45:36.315Z,99.25
2019-02-12T01:48:05.441Z,99.57
2019-02-12T01:50:34.759Z,99.57
2019-02-12T01:53:03.916Z,99.70
2019-02-12T01:55:33.029Z,99.31
2019-02-12T01:58:02.130Z,99.31
2019-02-12T02:00:31.436Z,99.12
2019-02-12T02:03:00.683Z,99.17
2019-02-12T02:05:29.847Z,99.17
2019-02-12T02:07:59.135Z,99.30
2019-02-12T02:10:28.403Z,99.83
2019-02-12T02:12:57.608Z,99.83
2019-02-12T02:15:26.734Z,100.00
2019-02-12T02:17:55.863Z,100.00
2019-02-12T02:20:25.224Z,100.00
2019-02-12T02:22:54.445Z,100.00
2019-02-12T02:25:23.613Z,100.00
2019-02-12T02:27:52.927Z,100.00
2019-02-12T02:30:22.127Z,100.00
2019-02-12T02:32:51.234Z,100.00
2019-02-12T02:35:20.478Z,100.00
2019-02-12T02:37:49.885Z,100.00
2019-02-12T02:40:19.076Z,100.00
2019-02-12T02:42:48.336Z,100.00
2019-02-12T02:45:17.485Z,99.43
2019-02-12T02:47:46.752Z,99.67
2019-02-12T02:50:15.821Z,99.67
2019-02-12T02:52:44.917Z,99.98
2019-02-12T02:55:14.332Z,100.00
2019-02-12T02:57:43.434Z,99.86
2019-02-12T03:00:12.775Z,100.00
2019-02-12T03:02:41.918Z,100.00
2019-02-12T03:05:11.466Z,100.00
2019-02-12T03:07:40.554Z,100.00
2019-02-12T03:10:10.060Z,100.00
2019-02-12T03:12:39.158Z,100.00
2019-02-12T03:15:10.322Z,100.00
2019-02-12T03:17:39.569Z,100.00
2019-02-12T03:20:10.356Z,100.00
2019-02-12T03:22:39.849Z,100.00
2019-02-12T03:25:09.707Z,100.00
2019-02-12T03:27:39.290Z,100.00
2019-02-12T03:30:09.569Z,100.00
2019-02-12T03:32:38.841Z,100.00
2019-02-12T03:35:08.705Z,100.00
2019-02-12T03:37:37.798Z,99.89
2019-02-12T03:40:08.626Z,99.89
2019-02-12T03:42:37.759Z,100.00
2019-02-12T03:45:07.487Z,99.44
2019-02-12T03:47:36.737Z,99.44
2019-02-12T03:50:06.922Z,100.00
2019-02-12T03:52:36.139Z,99.57
2019-02-12T03:55:05.784Z,99.90
2019-02-12T03:57:34.995Z,99.90
2019-02-12T04:00:04.247Z,100.00
2019-02-12T04:02:33.361Z,100.00
2019-02-12T04:05:02.470Z,100.00
2019-02-12T04:07:31.600Z,100.00
2019-02-12T04:10:00.784Z,100.00
2019-02-12T04:12:29.938Z,100.00
2019-02-12T04:14:59.291Z,100.00
2019-02-12T04:17:28.682Z,100.00
2019-02-12T04:19:57.839Z,100.00
2019-02-12T04:22:27.081Z,100.00
2019-02-12T04:24:56.152Z,100.00
2019-02-12T04:27:25.267Z,100.00
2019-02-12T04:29:54.328Z,100.00
2019-02-12T04:32:23.771Z,100.00
2019-02-12T04:34:52.832Z,100.00
2019-02-12T04:37:22.119Z,100.00
2019-02-12T04:39:51.309Z,100.00
2019-02-12T04:42:20.606Z,100.00
2019-02-12T04:44:49.722Z,100.00
2019-02-12T04:47:19.120Z,100.00
2019-02-12T04:49:48.344Z,100.00
2019-02-12T04:52:17.408Z,100.00
2019-02-12T04:54:46.665Z,100.00
2019-02-12T04:57:15.913Z,100.00
2019-02-12T04:59:45.138Z,100.00
2019-02-12T05:02:14.344Z,100.00
2019-02-12T05:04:43.552Z,100.00
2019-02-12T05:07:12.817Z,100.00
2019-02-12T05:09:44.999Z,100.00
2019-02-12T05:12:16.127Z,100.00
2019-02-12T05:14:45.450Z,100.00
2019-02-12T05:17:14.566Z,100.00
2019-02-12T05:19:43.838Z,100.00
2019-02-12T05:22:13.251Z,100.00
2019-02-12T05:24:42.452Z,100.00
2019-02-12T05:27:11.534Z,100.00
2019-02-12T05:29:42.043Z,100.00
2019-02-12T05:32:11.144Z,100.00
2019-02-12T05:34:40.361Z,100.00
2019-02-12T05:37:09.441Z,100.00
2019-02-12T05:39:38.549Z,100.00
2019-02-12T05:42:07.679Z,100.00
2019-02-12T05:44:37.169Z,100.00
2019-02-12T05:47:07.016Z,100.00
2019-02-12T05:49:36.326Z,100.00
2019-02-12T05:52:05.439Z,100.00
2019-02-12T05:54:34.807Z,100.00
2019-02-12T05:57:04.024Z,100.00
2019-02-12T05:59:33.444Z,100.00
2019-02-12T06:02:02.549Z,100.00
2019-02-12T06:04:31.707Z,100.00
2019-02-12T06:07:01.263Z,100.00
2019-02-12T06:09:30.555Z,100.00
2019-02-12T06:11:59.593Z,100.00
2019-02-12T06:14:28.679Z,100.00
2019-02-12T06:16:57.753Z,99.92
2019-02-12T06:19:27.058Z,99.55
2019-02-12T06:21:56.368Z,99.55
2019-02-12T06:24:25.460Z,99.91
2019-02-12T06:26:54.640Z,99.91
2019-02-12T06:29:23.918Z,100.00
2019-02-12T06:31:53.245Z,99.81
2019-02-12T06:34:22.325Z,99.90
2019-02-12T06:36:51.552Z,99.90
2019-02-12T06:39:20.669Z,100.00
2019-02-12T06:41:50.127Z,100.00
2019-02-12T06:44:19.389Z,100.00
2019-02-12T06:46:48.619Z,100.00
2019-02-12T06:49:17.710Z,100.00
2019-02-12T06:51:46.812Z,100.00
2019-02-12T06:54:16.328Z,98.92
2019-02-12T06:56:45.770Z,100.00
2019-02-12T06:59:15.086Z,98.83
2019-02-12T07:01:44.212Z,99.16
2019-02-12T07:04:19.405Z,99.16
2019-02-12T07:07:16.844Z,98.32
2019-02-12T07:09:55.738Z,98.12
2019-02-12T07:12:51.189Z,98.78
2019-02-12T07:15:39.827Z,99.02
2019-02-12T07:18:57.113Z,98.07
2019-02-12T07:21:55.404Z,98.09
2019-02-12T07:24:46.012Z,98.09
2019-02-12T07:28:08.627Z,98.91
2019-02-12T07:31:14.849Z,98.91
2019-02-12T07:34:16.586Z,99.07
2019-02-12T07:37:10.042Z,99.08
2019-02-12T07:40:11.063Z,98.61
2019-02-12T07:42:59.618Z,98.04
2019-02-12T07:46:01.573Z,98.04
2019-02-12T07:49:08.794Z,97.47
2019-02-12T07:51:56.419Z,95.20
2019-02-12T07:55:06.666Z,94.34
2019-02-12T07:58:25.333Z,93.96
2019-02-12T08:01:14.905Z,93.96
2019-02-12T08:04:08.988Z,93.62
2019-02-12T08:07:26.076Z,94.29
2019-02-12T08:10:31.403Z,93.02
2019-02-12T08:13:50.101Z,93.02
2019-02-12T08:17:05.375Z,93.20
2019-02-12T08:20:02.737Z,92.04
2019-02-12T08:22:57.347Z,88.71
2019-02-12T08:26:13.558Z,88.50
2019-02-12T08:29:11.552Z,86.24
2019-02-12T08:32:02.204Z,86.73
2019-02-12T08:35:07.325Z,86.40
2019-02-12T08:38:04.572Z,86.33
2019-02-12T08:41:05.169Z,86.33
2019-02-12T08:44:03.495Z,87.31
2019-02-12T08:46:58.874Z,87.31
2019-02-12T08:50:06.146Z,87.98
2019-02-12T08:53:01.056Z,88.85
2019-02-12T08:55:50.986Z,88.32
2019-02-12T08:58:56.687Z,88.32
2019-02-12T09:02:25.273Z,86.98
2019-02-12T09:05:50.581Z,86.98
2019-02-12T09:08:55.684Z,85.65
2019-02-12T09:12:07.804Z,86.92
2019-02-12T09:15:05.409Z,86.44
2019-02-12T09:17:54.252Z,84.85
2019-02-12T09:21:01.662Z,85.56
2019-02-12T09:24:12.028Z,85.86
2019-02-12T09:27:15.062Z,85.78
2019-02-12T09:30:22.393Z,85.78
2019-02-12T09:33:16.566Z,84.73
2019-02-12T09:36:30.683Z,84.40
2019-02-12T09:39:36.274Z,82.25
2019-02-12T09:42:37.330Z,80.93
2019-02-12T09:45:28.441Z,80.93
2019-02-12T09:48:31.736Z,78.62
2019-02-12T09:51:34.734Z,78.34
2019-02-12T09:54:42.350Z,77.17
2019-02-12T09:57:55.608Z,77.01
2019-02-12T10:01:10.015Z,75.36
2019-02-12T10:04:13.396Z,74.38
2019-02-12T10:07:06.551Z,74.71
2019-02-12T10:10:10.544Z,73.59
2019-02-12T10:12:47.461Z,73.99
2019-02-12T10:15:57.645Z,73.31
2019-02-12T10:19:12.663Z,73.04
2019-02-12T10:22:09.557Z,74.44
2019-02-12T10:24:53.102Z,73.08
2019-02-12T10:28:15.503Z,73.59
2019-02-12T10:31:08.723Z,72.31
2019-02-12T10:33:37.987Z,72.03
2019-02-12T10:36:07.278Z,71.73
2019-02-12T10:38:36.314Z,71.76
2019-02-12T10:41:05.458Z,70.80
2019-02-12T10:43:34.753Z,71.87
2019-02-12T10:46:04.072Z,71.73
2019-02-12T10:48:33.174Z,70.37
2019-02-12T10:51:02.624Z,69.57
2019-02-12T10:53:31.674Z,70.52
2019-02-12T10:56:00.776Z,71.18
2019-02-12T10:58:30.207Z,71.60
2019-02-12T11:00:59.433Z,68.67
2019-02-12T11:03:28.827Z,69.09
2019-02-12T11:05:57.890Z,67.82
2019-02-12T11:08:27.128Z,69.03
2019-02-12T11:10:56.654Z,69.67
2019-02-12T11:13:25.683Z,71.58
2019-02-12T11:15:54.833Z,69.19
2019-02-12T11:18:23.907Z,68.96
2019-02-12T11:20:53.136Z,70.10
2019-02-12T11:23:22.377Z,67.96
2019-02-12T11:25:51.686Z,69.60
2019-02-12T11:28:20.857Z,68.41
2019-02-12T11:30:50.306Z,67.11
2019-02-12T11:33:19.587Z,67.82
2019-02-12T11:35:48.704Z,68.09
2019-02-12T11:38:18.008Z,68.43
2019-02-12T11:40:47.155Z,66.29
2019-02-12T11:43:16.295Z,64.90
2019-02-12T11:45:45.463Z,66.01
2019-02-12T11:48:14.565Z,66.15
2019-02-12T11:50:43.874Z,63.76
2019-02-12T11:53:12.981Z,65.46
2019-02-12T11:55:42.168Z,65.56
2019-02-12T11:58:11.485Z,67.35
2019-02-12T12:00:44.736Z,64.50
2019-02-12T12:03:13.884Z,65.16
2019-02-12T12:05:43.085Z,64.59
2019-02-12T12:08:12.190Z,64.38
2019-02-12T12:10:41.547Z,65.03
2019-02-12T12:13:10.669Z,63.74
2019-02-12T12:15:39.839Z,64.36
2019-02-12T12:18:09.182Z,63.23
2019-02-12T12:20:38.265Z,63.33
2019-02-12T12:23:07.524Z,62.58
2019-02-12T12:25:36.806Z,62.26
2019-02-12T12:28:06.042Z,58.99
2019-02-12T12:30:35.180Z,59.21
2019-02-12T12:33:04.458Z,60.16
2019-02-12T12:35:33.759Z,60.25
2019-02-12T12:38:02.946Z,60.17
2019-02-12T12:40:32.362Z,59.88
2019-02-12T12:43:01.427Z,60.62
2019-02-12T12:45:30.657Z,61.76
2019-02-12T12:47:59.957Z,63.37
2019-02-12T12:50:29.259Z,64.84
2019-02-12T12:52:58.343Z,65.25
2019-02-12T12:55:27.430Z,66.98
2019-02-12T12:57:57.341Z,66.38
2019-02-12T13:00:26.948Z,66.07
2019-02-12T13:02:56.175Z,64.94
2019-02-12T13:05:25.308Z,65.94
2019-02-12T13:07:54.520Z,67.02
2019-02-12T13:10:23.858Z,64.44
2019-02-12T13:12:52.932Z,63.68
2019-02-12T13:15:22.231Z,60.88
2019-02-12T13:17:51.424Z,60.77
2019-02-12T13:20:20.670Z,58.73
2019-02-12T13:22:49.746Z,59.27
2019-02-12T13:25:19.049Z,60.75
2019-02-12T13:27:48.313Z,58.26
2019-02-12T13:30:17.537Z,59.34
2019-02-12T13:32:46.750Z,60.49
2019-02-12T13:35:15.845Z,59.19
2019-02-12T13:37:45.233Z,59.99
2019-02-12T13:40:14.300Z,58.31
2019-02-12T13:42:43.470Z,59.82
2019-02-12T13:45:14.017Z,60.39
2019-02-12T13:47:43.489Z,61.25
2019-02-12T13:50:12.611Z,61.41
2019-02-12T13:52:41.786Z,60.15
2019-02-12T13:55:17.008Z,59.93
2019-02-12T13:57:42.919Z,60.37
2019-02-12T14:00:13.320Z,59.36
2019-02-12T14:02:42.405Z,57.83
2019-02-12T14:05:14.238Z,58.00
2019-02-12T14:07:43.709Z,58.19
2019-02-12T14:10:12.883Z,58.13
2019-02-12T14:12:42.107Z,57.46
2019-02-12T14:15:13.121Z,58.57
2019-02-12T14:17:42.662Z,59.29
2019-02-12T14:20:13.147Z,59.52
2019-02-12T14:22:42.229Z,58.20
2019-02-12T14:25:11.591Z,56.79
2019-02-12T14:27:40.685Z,57.51
2019-02-12T14:30:12.582Z,56.25
2019-02-12T14:32:41.681Z,56.74
2019-02-12T14:35:11.897Z,56.34
2019-02-12T14:37:41.167Z,56.92
2019-02-12T14:40:11.363Z,56.85
2019-02-12T14:42:40.474Z,57.65
2019-02-12T14:45:11.668Z,58.25
2019-02-12T14:47:40.810Z,58.08
2019-02-12T14:50:11.093Z,57.31
2019-02-12T14:52:40.278Z,57.49
2019-02-12T14:55:09.583Z,57.48
2019-02-12T14:57:39.969Z,58.63
2019-02-12T15:00:11.913Z,58.22
2019-02-12T15:02:41.125Z,58.04
2019-02-12T15:05:10.323Z,58.54
2019-02-12T15:07:39.523Z,58.09
2019-02-12T15:10:09.873Z,57.55
2019-02-12T15:12:38.971Z,56.48
2019-02-12T15:15:08.641Z,57.40
2019-02-12T15:17:37.725Z,57.62
2019-02-12T15:20:08.008Z,55.55
2019-02-12T15:22:37.071Z,57.96
2019-02-12T15:25:06.939Z,56.86
2019-02-12T15:27:36.166Z,57.71
2019-02-12T15:30:07.030Z,57.27
2019-02-12T15:32:36.088Z,58.16
2019-02-12T15:35:06.068Z,57.70
2019-02-12T15:37:35.119Z,57.99
2019-02-12T15:40:04.931Z,57.71
2019-02-12T15:42:34.469Z,58.96
2019-02-12T15:45:03.848Z,59.75
2019-02-12T15:47:32.896Z,60.05
2019-02-12T15:50:02.162Z,59.44
2019-02-12T15:52:31.398Z,60.09
2019-02-12T15:55:00.628Z,59.74
2019-02-12T15:57:29.897Z,59.79
2019-02-12T15:59:59.167Z,60.13
2019-02-12T16:02:28.438Z,60.62
2019-02-12T16:04:57.707Z,61.59
2019-02-12T16:07:26.972Z,61.61
2019-02-12T16:09:57.010Z,62.45
2019-02-12T16:12:26.799Z,62.99
2019-02-12T16:14:59.226Z,63.49
2019-02-12T16:17:28.368Z,62.64
2019-02-12T16:19:57.920Z,64.01
2019-02-12T16:22:27.038Z,64.05
2019-02-12T16:24:58.440Z,64.36
2019-02-12T16:27:27.847Z,64.74
2019-02-12T16:29:57.553Z,63.65
2019-02-12T16:32:26.893Z,64.64
2019-02-12T16:34:56.038Z,65.45
2019-02-12T16:37:25.323Z,65.82
2019-02-12T16:39:54.645Z,66.03
2019-02-12T16:42:24.181Z,66.56
2019-02-12T16:44:53.944Z,66.42
2019-02-12T16:47:23.238Z,66.53
2019-02-12T16:49:52.740Z,67.01
2019-02-12T16:52:22.057Z,66.88
2019-02-12T16:54:52.020Z,67.10
2019-02-12T16:57:21.684Z,66.95
2019-02-12T16:59:51.441Z,67.26
2019-02-12T17:02:20.560Z,68.06
2019-02-12T17:04:49.675Z,68.18
2019-02-12T17:07:19.594Z,68.20
2019-02-12T17:09:52.266Z,68.93
2019-02-12T17:12:21.345Z,68.72
2019-02-12T17:14:50.616Z,69.38
2019-02-12T17:17:19.738Z,68.92
2019-02-12T17:19:48.996Z,68.87
2019-02-12T17:22:18.284Z,68.91
2019-02-12T17:24:47.396Z,69.39
2019-02-12T17:27:16.816Z,70.56
2019-02-12T17:29:46.798Z,70.22
2019-02-12T17:32:16.026Z,70.38
2019-02-12T17:34:47.384Z,70.27
2019-02-12T17:37:16.633Z,70.26
2019-02-12T17:39:46.520Z,70.33
2019-02-12T17:42:16.222Z,70.37
2019-02-12T17:44:45.755Z,70.90
2019-02-12T17:47:15.055Z,70.62
2019-02-12T17:49:44.490Z,71.13
2019-02-12T17:52:13.887Z,71.23
2019-02-12T17:54:43.031Z,71.20
2019-02-12T17:57:12.274Z,71.19
2019-02-12T17:59:41.407Z,72.05
2019-02-12T18:02:10.462Z,72.09
2019-02-12T18:04:39.801Z,72.52
2019-02-12T18:07:09.111Z,72.39
2019-02-12T18:09:40.606Z,73.07
2019-02-12T18:12:09.704Z,73.39
2019-02-12T18:14:39.666Z,73.59
2019-02-12T18:17:09.017Z,73.17
2019-02-12T18:19:38.096Z,73.32
2019-02-12T18:22:07.393Z,73.28
2019-02-12T18:24:37.229Z,73.58
2019-02-12T18:27:07.423Z,73.20
2019-02-12T18:29:37.100Z,73.88
2019-02-12T18:32:08.334Z,73.75
2019-02-12T18:34:37.451Z,74.85
2019-02-12T18:37:06.989Z,74.55
2019-02-12T18:39:37.890Z,74.83
2019-02-12T18:42:07.580Z,75.15
2019-02-12T18:44:37.056Z,75.98
2019-02-12T18:47:06.370Z,75.90
2019-02-12T18:49:37.758Z,75.59
2019-02-12T18:52:07.636Z,75.74
2019-02-12T18:54:36.886Z,76.30
2019-02-12T18:57:06.350Z,76.81
2019-02-12T18:59:35.605Z,77.43
2019-02-12T19:02:06.277Z,77.65
2019-02-12T19:04:35.633Z,77.87
2019-02-12T19:07:05.228Z,78.47
2019-02-12T19:09:34.495Z,78.56
2019-02-12T19:12:03.910Z,78.99
2019-02-12T19:14:33.316Z,79.21
2019-02-12T19:17:02.808Z,79.55
2019-02-12T19:19:32.185Z,80.12
2019-02-12T19:22:01.556Z,81.41
2019-02-12T19:24:31.662Z,81.42
2019-02-12T19:27:01.065Z,81.42
2019-02-12T19:29:30.652Z,82.11
2019-02-12T19:32:00.026Z,82.11
2019-02-12T19:34:29.756Z,82.01
2019-02-12T19:36:58.911Z,82.01
2019-02-12T19:39:28.415Z,82.23
2019-02-12T19:41:58.028Z,83.00
2019-02-12T19:44:27.476Z,83.00
2019-02-12T19:46:56.794Z,83.73
2019-02-12T19:49:26.054Z,83.82
2019-02-12T19:51:56.258Z,84.36
2019-02-12T19:54:25.784Z,84.36
2019-02-12T19:56:58.339Z,84.50
2019-02-12T19:59:26.829Z,84.58
2019-02-12T20:01:56.505Z,84.30
2019-02-12T20:04:26.598Z,84.26
2019-02-12T20:06:55.973Z,86.37
2019-02-12T20:09:25.558Z,86.37
2019-02-12T20:11:54.711Z,85.09
2019-02-12T20:14:23.973Z,85.21
2019-02-12T20:16:55.618Z,85.21
2019-02-12T20:19:25.144Z,85.41
2019-02-12T20:21:54.288Z,85.41
2019-02-12T20:24:23.543Z,85.45
2019-02-12T20:26:52.811Z,85.71
2019-02-12T20:29:22.120Z,86.31
2019-02-12T20:31:51.235Z,86.36
2019-02-12T20:34:20.445Z,86.70
2019-02-12T20:36:49.771Z,86.91
2019-02-12T20:39:20.094Z,87.07
2019-02-12T20:41:49.405Z,87.52
2019-02-12T20:44:18.699Z,87.39
2019-02-12T20:46:47.804Z,87.47
2019-02-12T20:49:16.946Z,87.97
2019-02-12T20:51:46.228Z,88.00
2019-02-12T20:54:15.424Z,88.53
2019-02-12T20:56:46.408Z,88.34
2019-02-12T20:59:15.624Z,88.26
2019-02-12T21:01:44.797Z,88.43
2019-02-12T21:04:13.963Z,88.09
2019-02-12T21:06:43.254Z,88.50
2019-02-12T21:09:12.859Z,88.44
2019-02-12T21:11:41.979Z,88.22
2019-02-12T21:14:11.354Z,88.53
2019-02-12T21:16:40.620Z,88.58
2019-02-12T21:19:09.692Z,88.91
2019-02-12T21:21:38.937Z,89.06
2019-02-12T21:24:08.517Z,89.16
2019-02-12T21:26:37.964Z,89.22
2019-02-12T21:29:07.146Z,88.98
2019-02-12T21:31:36.459Z,88.84
2019-02-12T21:34:05.666Z,88.54
2019-02-12T21:36:35.575Z,88.78
2019-02-12T21:39:06.378Z,89.10
2019-02-12T21:41:35.580Z,89.00
2019-02-12T21:44:05.269Z,89.01
2019-02-12T21:46:34.464Z,88.99
2019-02-12T21:49:03.956Z,89.34
2019-02-12T21:51:33.117Z,89.46
2019-02-12T21:54:04.475Z,89.74
2019-02-12T21:56:33.761Z,90.04
2019-02-12T21:59:04.705Z,90.17
2019-02-12T22:01:33.941Z,90.00
2019-02-12T22:04:03.061Z,89.84
2019-02-12T22:06:32.333Z,89.83
2019-02-12T22:09:01.862Z,89.66
2019-02-12T22:11:31.024Z,89.54
2019-02-12T22:14:00.114Z,89.72
2019-02-12T22:16:29.231Z,89.60
2019-02-12T22:18:58.379Z,89.68
2019-02-12T22:21:27.545Z,89.79
2019-02-12T22:23:56.889Z,89.96
2019-02-12T22:26:26.063Z,89.18
2019-02-12T22:28:55.248Z,89.44
2019-02-12T22:31:24.588Z,89.33
2019-02-12T22:33:53.705Z,89.47
2019-02-12T22:36:22.859Z,89.65
2019-02-12T22:38:52.199Z,89.52
2019-02-12T22:41:21.448Z,89.90
2019-02-12T22:43:50.770Z,89.71
2019-02-12T22:46:19.926Z,89.99
2019-02-12T22:48:49.058Z,89.90
2019-02-12T22:51:18.236Z,89.82
2019-02-12T22:53:47.511Z,89.88
2019-02-12T22:56:16.762Z,90.16
2019-02-12T22:58:45.880Z,89.98
2019-02-12T23:01:15.449Z,89.73
2019-02-12T23:03:44.544Z,89.73
2019-02-12T23:06:13.686Z,90.51
2019-02-12T23:08:42.989Z,91.12
2019-02-12T23:11:12.199Z,91.22
2019-02-12T23:13:41.314Z,91.29
2019-02-12T23:16:11.792Z,91.54
2019-02-12T23:18:40.857Z,91.50
2019-02-12T23:21:13.921Z,91.53
2019-02-12T23:23:43.024Z,91.29
2019-02-12T23:26:12.347Z,90.88
2019-02-12T23:28:41.405Z,91.06
2019-02-12T23:31:10.567Z,91.18
2019-02-12T23:33:39.920Z,91.28
2019-02-12T23:36:09.081Z,91.27
2019-02-12T23:38:38.310Z,91.27
2019-02-12T23:41:07.695Z,91.23
2019-02-12T23:43:36.915Z,91.48
2019-02-12T23:46:05.992Z,91.95
2019-02-12T23:48:35.358Z,91.73
2019-02-12T23:51:04.655Z,91.96
2019-02-12T23:53:33.763Z,91.82
2019-02-12T23:56:02.904Z,91.41
2019-02-12T23:58:32.381Z,91.97
